Alpine, Colorado
Current Conditions -  °F | °C
As of 7:30 PM on Sunday 25 Jan 2015 (Local Time) from KRCV Reporting Station
Clear Clear  
Wind Chill: 21°   Ceiling: Unl
Heat Index: 26°   Visibility: 10mi
Dew Point: 19°   Wind: 5mph
Humidity: 74%   Direction: 150°SSE
Pressure: 30.34"   Gusts: NA
Location:  37.6617°N, 106.617°W
Report Text: KRCV 260230Z AUTO 15004KT 10SM CLR M03/M07 A3034 RMK AO2 T10321073
Loading
Personal Weather Stations






























Interactive Weather Map New forecast layout! Learn more

10-Day Weather Forecast

Advertisements
Track Severe Weather on mobile